Startpagina
METAR-TAF:

METAR-TAF

Vliegvelden :

Brussels Airport. Zaventem

Brussel, België

breedte: 50-54N, lengte: 004-32E, hoogte: 55 m

Actueel weer

Dit bericht is 31 minuten geleden gemaakt, om 12:20 UTC
Wind 14 kt uit het westzuidwesten
Temperatuur 10°C
Vochtigheid 87%
Druk 1025 hPa
Zicht 10 km of meer
Gebroken wolken op 1500 ft

METAR: EBBR 291220Z 24014KT 9999 BKN015 10/08 Q1025 NOSIG

Tijdstip: 13:51 (12:51 UTC)

Verwachting

Dit bericht is 1 uur en het 35 minuten geleden gemaakt, om 11:16 UTC
Verwachting geldig van 29 om 12 UTC tot 30 om 18 UTC
Wind 12 kt uit het westen
Zicht 10 km of meer
Verspreide wolken op 1200 ft
Gebroken wolken op 2000 ft
Kans 30% :
Tijdelijke
van 29 om 12 UTC tot 29 om 17 UTC
Wind 15 kt uit het westen met uitschieters tot 25 kt

TAF: EBBR 291116Z 2912/3018 26012KT 9999 SCT012 BKN020 PROB30 TEMPO 2912/2917 27015G25KT

Waarnemingen en weersverwachtingen van meer dan 4000 vliegvelden (METAR en TAF).

De beschikbare stations zijn de gele en rode punten op de kaart.

Ga met uw muis naar het station om de naam te zien.

Klik dan om waarnemingen en weersverwachtingen te zien.

kaart wijzigen: klik op de groene knoppen met een zwart kruis om in te zoomen, op de groene knop met een streepje om uit te zoomen of op de groene pijlen voor aangrenzende kaarten.


METAR-TAF: